Airfield :
LOGIN :

Register | Disclaimer

   EN    FR    IT 

 










Legend :    VFR   Marginal VFR   IFR   Intensive IFR   Very Intensive IFR
Visi :
Ceiling :
>= 8 km
>= 3000ft
5 to 8 km
1000 to 3000 ft
1500m to 5 km
500 to 1000 ft
800 to 1500m
200 to 500 ft
< 800m
< 200 ft
Symbols :   Thunderstorms  Fog  Heavy snow  Heavy precipitations  Wind > 20 kt
SIGMETs :     Misc.  Thunderstorms  Icing  Turbulence  Mountain Waves  Volcanic Ashes







- Airport Elevation : 466 ft


LHPA - Pápa

CURRENT METAR :
  • 200715Z 32012KT 290V350 9999 FEW010 BKN083 18/13 Q1019 NOSIG RMK BLU

EXPIRED METARs :
  • 200645Z 32010KT 9999 FEW007 BKN083 17/14 Q1018 NOSIG RMK BLU
  • 200615Z 32006KT 290V350 9999 FEW007 SCT047 BKN083 16/14 Q1018 NOSIG RMK BLU
  • 200545Z 31004KT 9999 FEW007 SCT047 BKN083 16/14 Q1018 NOSIG RMK BLU
  • 200515Z 31006KT 280V350 9999 FEW007 SCT047 BKN083 16/14 Q1018 RERA NOSIG RMK BLU
  • 200445Z 32008KT 280V340 9999 -RA FEW007 BKN033 BKN083 15/14 Q1018 NOSIG RMK BLU

TAF TAF LHPA
Valid from the 20 at 06:00 until the 21 at 06:00 UTC


200515Z 2006/2106 35010KT 9999 BKN040 BKN083
TEMPO 2006/2008 8000 -SHRA -RA FEW010 BKN030TCU BKN083
BECMG 2009/2012 34014G24KT CAVOK
BECMG 2016/2019 34008KT
No reported NOTAMs for that airfield.
2 SIGMETs reported for the Budapest FIR (LHCC) :
 
Severe icing
LHCC SIGMET 05 VALID 200645/201045 LHBP
LHCC BUDAPEST FIR SEV ICE FCST E OF E01800 AND W OF E02200 FL120/190 MOV NE NC=
Embedded thunderstorms
LHCC SIGMET 04 VALID 200630/200830 LHBP
LHCC BUDAPEST FIR EMBD TS OBS E OF E01900 AND W OF E02030 TOP FL330 MOV E NC=



MET'MAP, your aeronautical weather chart ! - Copyright ORBIFLY December 2007 - Disclaimer

ORBIFLY MET'MAP TEAM :

Programming & Development : Alexandra Zaïnal
Concept & Development : Baudouin d'Aumeries
Co-Development & Prog : Marc-Olivier Méhu
Technical & hardware support : Manuel Goepfert

Contact : metmap@orbifly.com




SOURCES & CREDITS :

   NOAA